createdAt,value
2022-11-04T00:02:16.987Z,94385.19
2022-11-04T00:04:45.187Z,94368.28
2022-11-04T00:07:28.676Z,94371.69
2022-11-04T00:09:56.802Z,94374.88
2022-11-04T00:12:26.903Z,94381.19
2022-11-04T00:15:15.612Z,94388.31
2022-11-04T00:17:42.667Z,94391.19
2022-11-04T00:20:28.844Z,94405.97
2022-11-04T00:23:24.235Z,94397.47
2022-11-04T00:26:09.680Z,94389.28
2022-11-04T00:28:47.107Z,94406.94
2022-11-04T00:31:32.524Z,94414.06
2022-11-04T00:34:00.693Z,94432.53
2022-11-04T00:36:28.796Z,94420.66
2022-11-04T00:38:58.682Z,94427.50
2022-11-04T00:41:30.385Z,94424.63
2022-11-04T00:44:00.342Z,94419.34
2022-11-04T00:46:29.829Z,94422.78
2022-11-04T00:48:58.219Z,94402.47
2022-11-04T00:51:27.136Z,94399.59
2022-11-04T00:53:55.429Z,94406.19
2022-11-04T00:56:24.917Z,94398.28
2022-11-04T00:58:53.003Z,94385.59
2022-11-04T01:01:21.711Z,94380.03
2022-11-04T01:03:51.518Z,94394.53
2022-11-04T01:06:20.470Z,94387.66
2022-11-04T01:08:49.398Z,94391.06
2022-11-04T01:11:17.715Z,94389.22
2022-11-04T01:13:47.150Z,94390.50
2022-11-04T01:16:15.753Z,94400.53
2022-11-04T01:18:43.898Z,94391.03
2022-11-04T01:21:13.997Z,94388.91
2022-11-04T01:23:43.244Z,94384.91
2022-11-04T01:26:13.909Z,94372.81
2022-11-04T01:28:42.082Z,94365.41
2022-11-04T01:31:13.791Z,94382.56
2022-11-04T01:33:42.177Z,94374.63
2022-11-04T01:36:12.271Z,94379.13
2022-11-04T01:38:40.521Z,94381.75
2022-11-04T01:41:10.568Z,94401.53
2022-11-04T01:43:47.414Z,94388.88
2022-11-04T01:46:25.060Z,94380.44
2022-11-04T01:48:54.797Z,94385.69
2022-11-04T01:51:23.685Z,94386.47
2022-11-04T01:53:56.249Z,94387.78
2022-11-04T01:56:27.039Z,94375.66
2022-11-04T01:59:01.144Z,94388.88
2022-11-04T02:01:31.501Z,94398.63
2022-11-04T02:04:22.103Z,94393.38
2022-11-04T02:06:52.210Z,94413.91
2022-11-04T02:09:21.826Z,94387.00
2022-11-04T02:12:07.795Z,94390.16
2022-11-04T02:14:37.005Z,94401.50
2022-11-04T02:17:16.839Z,94403.06
2022-11-04T02:20:02.417Z,94385.69
2022-11-04T02:23:07.188Z,94385.91
2022-11-04T02:26:03.142Z,94388.81
2022-11-04T02:28:52.836Z,94397.78
2022-11-04T02:31:30.135Z,94389.06
2022-11-04T02:34:05.619Z,94394.91
2022-11-04T02:36:43.124Z,94395.06
2022-11-04T02:39:22.299Z,94387.72
2022-11-04T02:41:56.326Z,94382.47
2022-11-04T02:44:31.993Z,94391.91
2022-11-04T02:47:05.723Z,94384.53
2022-11-04T02:49:38.405Z,94392.19
2022-11-04T02:52:09.665Z,94389.00
2022-11-04T02:54:42.422Z,94381.34
2022-11-04T02:57:14.848Z,94380.56
2022-11-04T02:59:49.221Z,94378.19
2022-11-04T03:02:25.626Z,94375.47
2022-11-04T03:04:56.677Z,94369.72
2022-11-04T03:07:28.543Z,94369.72
2022-11-04T03:10:01.920Z,94368.41
2022-11-04T03:12:36.693Z,94372.38
2022-11-04T03:15:06.529Z,94371.84
2022-11-04T03:17:43.094Z,94365.25
2022-11-04T03:20:18.351Z,94370.22
2022-11-04T03:22:46.377Z,94376.88
2022-11-04T03:25:14.777Z,94368.16
2022-11-04T03:27:49.898Z,94366.56
2022-11-04T03:30:20.215Z,94360.75
2022-11-04T03:32:59.988Z,94364.75
2022-11-04T03:35:29.943Z,94367.66
2022-11-04T03:37:58.609Z,94363.91
2022-11-04T03:40:27.415Z,94377.63
2022-11-04T03:42:58.985Z,94377.41
2022-11-04T03:45:27.708Z,94394.75
2022-11-04T03:47:57.747Z,94382.13
2022-11-04T03:50:29.674Z,94374.47
2022-11-04T03:52:59.253Z,94367.91
2022-11-04T03:55:46.643Z,94349.72
2022-11-04T03:58:25.584Z,94353.66
2022-11-04T04:01:01.466Z,94355.78
2022-11-04T04:03:40.205Z,94349.97
2022-11-04T04:06:12.887Z,94359.69
2022-11-04T04:08:47.651Z,94358.38
2022-11-04T04:11:20.855Z,94358.38
2022-11-04T04:13:56.071Z,94365.22
2022-11-04T04:16:30.815Z,94351.75
2022-11-04T04:19:05.818Z,94376.53
2022-11-04T04:21:38.803Z,94386.31
2022-11-04T04:24:28.087Z,94375.75
2022-11-04T04:27:15.684Z,94374.19
2022-11-04T04:29:45.722Z,94361.53
2022-11-04T04:32:15.558Z,94353.91
2022-11-04T04:34:45.488Z,94341.44
2022-11-04T04:37:20.313Z,94340.97
2022-11-04T04:40:07.115Z,94339.38
2022-11-04T04:42:53.963Z,94345.91
2022-11-04T04:45:24.410Z,94382.22
2022-11-04T04:47:52.870Z,94397.16
2022-11-04T04:50:22.905Z,94403.47
2022-11-04T04:52:53.239Z,94382.84
2022-11-04T04:55:22.119Z,94380.78
2022-11-04T04:57:50.992Z,94386.03
2022-11-04T05:00:21.878Z,94378.09
2022-11-04T05:02:51.167Z,94374.66
2022-11-04T05:05:21.242Z,94372.25
2022-11-04T05:07:50.623Z,94376.59
2022-11-04T05:10:19.499Z,94363.34
2022-11-04T05:13:05.811Z,94371.69
2022-11-04T05:15:34.131Z,94372.41
2022-11-04T05:18:03.640Z,94374.25
2022-11-04T05:20:34.136Z,94370.28
2022-11-04T05:23:03.641Z,94368.94
2022-11-04T05:25:31.642Z,94382.34
2022-11-04T05:28:01.253Z,94403.63
2022-11-04T05:30:30.035Z,94413.19
2022-11-04T05:33:01.516Z,94423.47
2022-11-04T05:35:32.905Z,94432.38
2022-11-04T05:38:01.038Z,94416.34
2022-11-04T05:40:30.430Z,94401.41
2022-11-04T05:42:59.700Z,94415.97
2022-11-04T05:45:28.207Z,94411.03
2022-11-04T05:48:00.644Z,94418.69
2022-11-04T05:50:29.374Z,94399.16
2022-11-04T05:52:58.496Z,94399.44
2022-11-04T05:55:27.519Z,94393.38
2022-11-04T05:57:58.053Z,94394.94
2022-11-04T06:00:27.250Z,94398.88
2022-11-04T06:02:57.261Z,94403.13
2022-11-04T06:05:26.177Z,94394.22
2022-11-04T06:07:54.210Z,94400.50
2022-11-04T06:10:22.253Z,94399.16
2022-11-04T06:12:50.271Z,94402.78
2022-11-04T06:15:19.673Z,94403.38
2022-11-04T06:17:47.809Z,94409.34
2022-11-04T06:20:16.542Z,94404.91
2022-11-04T06:22:44.548Z,94402.41
2022-11-04T06:25:12.806Z,94403.19
2022-11-04T06:27:41.320Z,94401.97
2022-11-04T06:30:10.886Z,94405.44
2022-11-04T06:32:40.826Z,94406.22
2022-11-04T06:35:10.023Z,94390.44
2022-11-04T06:37:39.842Z,94376.56
2022-11-04T06:40:09.281Z,94376.78
2022-11-04T06:42:37.333Z,94386.06
2022-11-04T06:45:06.119Z,94385.16
2022-11-04T06:47:34.139Z,94382.63
2022-11-04T06:50:04.007Z,94395.84
2022-11-04T06:52:32.031Z,94394.84
2022-11-04T06:55:00.080Z,94392.97
2022-11-04T06:57:28.258Z,94391.56
2022-11-04T06:59:56.532Z,94401.88
2022-11-04T07:02:24.631Z,94393.66
2022-11-04T07:04:53.347Z,94394.81
2022-11-04T07:07:23.630Z,94389.13
2022-11-04T07:09:51.711Z,94384.63
2022-11-04T07:12:19.711Z,94399.34
2022-11-04T07:14:47.726Z,94400.44
2022-11-04T07:17:15.712Z,94403.28
2022-11-04T07:19:44.053Z,94406.75
2022-11-04T07:22:12.004Z,94410.06
2022-11-04T07:24:41.475Z,94410.94
2022-11-04T07:27:09.465Z,94409.88
2022-11-04T07:29:37.382Z,94407.41
2022-11-04T07:32:05.989Z,94414.41
2022-11-04T07:34:34.054Z,94439.72
2022-11-04T07:37:02.065Z,94442.19
2022-11-04T07:39:30.013Z,94445.81
2022-11-04T07:41:59.971Z,94444.56
2022-11-04T07:44:28.190Z,94441.09
2022-11-04T07:46:56.637Z,94441.59
2022-11-04T07:49:25.406Z,94426.91
2022-11-04T07:51:53.902Z,94421.72
2022-11-04T07:54:21.912Z,94409.66
2022-11-04T07:56:49.893Z,94427.19
2022-11-04T07:59:19.364Z,94424.13
2022-11-04T08:01:47.396Z,94426.69
2022-11-04T08:04:15.423Z,94438.50
2022-11-04T08:06:43.789Z,94450.63
2022-11-04T08:09:11.919Z,94456.34
2022-11-04T08:11:40.366Z,94467.31
2022-11-04T08:14:08.537Z,94459.72
2022-11-04T08:16:37.931Z,94465.72
2022-11-04T08:19:06.158Z,94467.59
2022-11-04T08:21:35.583Z,94472.22
2022-11-04T08:24:05.331Z,94470.84
2022-11-04T08:26:34.971Z,94458.50
2022-11-04T08:29:06.606Z,94452.16
2022-11-04T08:31:38.968Z,94443.38
2022-11-04T08:34:08.527Z,94443.88
2022-11-04T08:36:38.138Z,94433.81
2022-11-04T08:39:10.962Z,94426.00
2022-11-04T08:41:41.971Z,94431.25
2022-11-04T08:44:10.349Z,94423.81
2022-11-04T08:46:41.477Z,94416.72
2022-11-04T08:49:12.892Z,94410.97
2022-11-04T08:51:47.086Z,94407.88
2022-11-04T08:54:15.187Z,94410.31
2022-11-04T08:56:43.388Z,94405.38
2022-11-04T08:59:12.540Z,94400.72
2022-11-04T09:01:43.871Z,94399.41
2022-11-04T09:04:12.795Z,94389.22
2022-11-04T09:06:44.915Z,94388.47
2022-11-04T09:09:15.609Z,94401.06
2022-11-04T09:11:45.097Z,94397.50
2022-11-04T09:14:13.460Z,94393.31
2022-11-04T09:16:44.480Z,94376.81
2022-11-04T09:19:12.920Z,94375.25
2022-11-04T09:21:41.417Z,94378.56
2022-11-04T09:24:11.530Z,94372.84
2022-11-04T09:26:39.834Z,94373.34
2022-11-04T09:29:09.791Z,94379.91
2022-11-04T09:31:38.471Z,94374.44
2022-11-04T09:34:07.863Z,94373.69
2022-11-04T09:36:35.850Z,94383.91
2022-11-04T09:39:03.967Z,94392.81
2022-11-04T09:41:52.366Z,94394.25
2022-11-04T09:44:27.113Z,94392.47
2022-11-04T09:46:58.121Z,94398.38
2022-11-04T09:49:29.174Z,94399.72
2022-11-04T09:52:00.332Z,94402.13
2022-11-04T09:54:34.187Z,94404.03
2022-11-04T09:57:04.081Z,94395.59
2022-11-04T09:59:35.154Z,94395.19
2022-11-04T10:02:41.806Z,94397.66
2022-11-04T10:05:22.806Z,94400.19
2022-11-04T10:08:10.584Z,94399.59
2022-11-04T10:10:48.572Z,94399.53
2022-11-04T10:13:26.715Z,94399.38
2022-11-04T10:16:20.154Z,94381.84
2022-11-04T10:19:16.271Z,94368.69
2022-11-04T10:21:55.311Z,94367.66
2022-11-04T10:24:31.850Z,94355.81
2022-11-04T10:27:04.178Z,94352.38
2022-11-04T10:29:38.032Z,94349.00
2022-11-04T10:32:19.469Z,94333.47
2022-11-04T10:34:56.198Z,94337.41
2022-11-04T10:37:27.583Z,94334.47
2022-11-04T10:40:07.212Z,94334.22
2022-11-04T10:42:35.266Z,94324.44
2022-11-04T10:45:03.280Z,94324.75
2022-11-04T10:47:39.652Z,94330.81
2022-11-04T10:50:29.731Z,94315.22
2022-11-04T10:53:12.528Z,94312.03
2022-11-04T10:55:49.369Z,94311.53
2022-11-04T10:58:22.702Z,94323.91
2022-11-04T11:00:51.754Z,94315.50
2022-11-04T11:03:35.135Z,94320.28
2022-11-04T11:06:15.381Z,94318.63
2022-11-04T11:08:45.706Z,94322.25
2022-11-04T11:11:16.144Z,94320.19
2022-11-04T11:13:46.803Z,94321.78
2022-11-04T11:16:20.513Z,94318.88
2022-11-04T11:19:14.171Z,94324.97
2022-11-04T11:21:47.995Z,94339.34
2022-11-04T11:24:25.982Z,94328.09
2022-11-04T11:26:57.134Z,94327.03
2022-11-04T11:29:28.107Z,94325.78
2022-11-04T11:31:57.568Z,94329.81
2022-11-04T11:34:30.694Z,94332.13
2022-11-04T11:36:59.737Z,94339.03
2022-11-04T11:39:31.600Z,94347.22
2022-11-04T11:42:02.732Z,94352.25
2022-11-04T11:44:37.107Z,94350.66
2022-11-04T11:47:07.508Z,94345.59
2022-11-04T11:49:39.072Z,94351.31
2022-11-04T11:52:36.891Z,94366.00
2022-11-04T11:55:13.429Z,94357.13
2022-11-04T12:00:45.651Z,94354.25
2022-11-04T12:03:31.136Z,94354.50
2022-11-04T12:06:34.439Z,94352.94
2022-11-04T12:09:18.200Z,94345.84
2022-11-04T12:12:05.606Z,94340.38
2022-11-04T12:14:52.579Z,94341.91
2022-11-04T12:17:32.322Z,94344.84
2022-11-04T12:20:11.727Z,94342.97
2022-11-04T12:22:52.121Z,94359.44
2022-11-04T12:25:25.423Z,94350.28
2022-11-04T12:28:04.385Z,94352.19
2022-11-04T12:30:39.586Z,94359.22
2022-11-04T12:33:23.178Z,94358.88
2022-11-04T12:36:02.508Z,94352.78
2022-11-04T12:38:48.918Z,94346.31
2022-11-04T12:41:46.694Z,94351.91
2022-11-04T12:44:27.378Z,94350.13
2022-11-04T12:47:05.224Z,94345.63
2022-11-04T12:50:11.641Z,94339.28
2022-11-04T12:53:00.239Z,94335.59
2022-11-04T12:55:40.976Z,94338.72
2022-11-04T12:58:24.264Z,94348.50
2022-11-04T13:00:59.975Z,94344.03
2022-11-04T13:03:34.401Z,94344.81
2022-11-04T13:06:08.177Z,94348.53
2022-11-04T13:08:44.488Z,94344.06
2022-11-04T13:11:24.351Z,94351.97
2022-11-04T13:14:01.735Z,94352.50
2022-11-04T13:16:35.319Z,94355.91
2022-11-04T13:19:04.073Z,94363.34
2022-11-04T13:21:37.421Z,94367.03
2022-11-04T13:24:13.179Z,94361.50
2022-11-04T13:26:41.141Z,94367.78
2022-11-04T13:29:15.221Z,94373.09
2022-11-04T13:31:54.180Z,94369.94
2022-11-04T13:34:33.231Z,94374.97
2022-11-04T13:37:11.263Z,94369.94
2022-11-04T13:39:46.059Z,94371.53
2022-11-04T13:42:34.061Z,94375.50
2022-11-04T13:45:10.392Z,94372.06
2022-11-04T13:47:48.907Z,94376.03
2022-11-04T13:50:35.218Z,94372.06
2022-11-04T13:53:04.254Z,94365.19
2022-11-04T13:55:32.827Z,94367.81
2022-11-04T13:58:04.524Z,94366.47
2022-11-04T14:00:33.717Z,94367.25
2022-11-04T14:03:52.885Z,94369.03
2022-11-04T14:06:48.811Z,94361.44
2022-11-04T14:09:51.687Z,94360.63
2022-11-04T14:12:32.603Z,94376.47
2022-11-04T14:15:16.947Z,94371.19
2022-11-04T14:18:07.930Z,94390.13
2022-11-04T14:21:04.284Z,94389.66
2022-11-04T14:23:33.044Z,94386.75
2022-11-04T14:26:04.048Z,94384.88
2022-11-04T14:28:34.093Z,94387.50
2022-11-04T14:31:03.788Z,94387.81
2022-11-04T14:33:40.315Z,94392.53
2022-11-04T14:36:26.444Z,94391.19
2022-11-04T14:39:00.577Z,94387.75
2022-11-04T14:41:53.276Z,94391.47
2022-11-04T14:44:29.925Z,94391.72
2022-11-04T14:47:02.349Z,94389.41
2022-11-04T14:49:46.068Z,94385.13
2022-11-04T14:52:20.813Z,94381.47
2022-11-04T14:54:49.198Z,94388.09
2022-11-04T14:57:18.814Z,94388.09
2022-11-04T14:59:47.931Z,94386.25
2022-11-04T15:02:20.834Z,94387.81
2022-11-04T15:04:53.842Z,94394.84
2022-11-04T15:07:33.123Z,94393.81
2022-11-04T15:10:02.202Z,94390.34
2022-11-04T15:12:47.719Z,94404.28
2022-11-04T15:15:28.967Z,94405.28
2022-11-04T15:18:00.805Z,94404.91
2022-11-04T15:20:32.785Z,94399.84
2022-11-04T15:23:04.538Z,94397.47
2022-11-04T15:25:33.004Z,94401.38
2022-11-04T15:28:01.404Z,94400.63
2022-11-04T15:30:32.141Z,94403.97
2022-11-04T15:33:01.796Z,94404.22
2022-11-04T15:35:33.988Z,94411.34
2022-11-04T15:38:03.844Z,94415.78
2022-11-04T15:40:35.278Z,94412.28
2022-11-04T15:43:04.177Z,94413.72
2022-11-04T15:45:38.784Z,94415.50
2022-11-04T15:48:27.822Z,94409.66
2022-11-04T15:51:15.638Z,94407.53
2022-11-04T15:53:52.655Z,94413.28
2022-11-04T15:56:23.799Z,94417.91
2022-11-04T15:58:53.655Z,94408.31
2022-11-04T16:01:22.337Z,94419.56
2022-11-04T16:03:53.222Z,94419.75
2022-11-04T16:06:36.413Z,94417.31
2022-11-04T16:09:09.106Z,94423.53
2022-11-04T16:11:37.220Z,94432.91
2022-11-04T16:14:25.259Z,94438.00
2022-11-04T16:16:54.939Z,94435.56
2022-11-04T16:19:26.951Z,94441.56
2022-11-04T16:22:06.724Z,94442.28
2022-11-04T16:24:37.893Z,94441.97
2022-11-04T16:27:10.658Z,94448.50
2022-11-04T16:29:43.838Z,94448.28
2022-11-04T16:32:19.725Z,94442.78
2022-11-04T16:34:50.005Z,94444.59
2022-11-04T16:37:19.471Z,94451.63
2022-11-04T16:39:47.724Z,94456.09
2022-11-04T16:42:17.786Z,94460.25
2022-11-04T16:44:49.939Z,94465.44
2022-11-04T16:47:18.869Z,94458.50
2022-11-04T16:49:47.555Z,94467.38
2022-11-04T16:52:20.453Z,94455.75
2022-11-04T16:54:50.195Z,94466.50
2022-11-04T16:57:18.528Z,94463.31
2022-11-04T16:59:46.712Z,94462.69
2022-11-04T17:02:22.402Z,94472.56
2022-11-04T17:04:50.547Z,94473.28
2022-11-04T17:07:18.752Z,94475.59
2022-11-04T17:09:47.165Z,94480.31
2022-11-04T17:12:16.539Z,94478.31
2022-11-04T17:14:44.764Z,94479.28
2022-11-04T17:17:13.227Z,94484.69
2022-11-04T17:19:41.269Z,94486.41
2022-11-04T17:22:09.944Z,94489.41
2022-11-04T17:24:38.678Z,94492.13
2022-11-04T17:27:06.629Z,94497.53
2022-11-04T17:29:37.385Z,94504.47
2022-11-04T17:32:05.434Z,94513.47
2022-11-04T17:34:33.570Z,94516.50
2022-11-04T17:37:02.396Z,94520.28
2022-11-04T17:39:30.773Z,94519.19
2022-11-04T17:42:16.708Z,94526.47
2022-11-04T17:44:46.057Z,94530.03
2022-11-04T17:47:14.439Z,94528.63
2022-11-04T17:49:42.696Z,94527.78
2022-11-04T17:52:11.594Z,94528.97
2022-11-04T17:54:39.542Z,94532.63
2022-11-04T17:57:08.629Z,94535.59
2022-11-04T17:59:37.169Z,94539.25
2022-11-04T18:02:07.350Z,94546.09
2022-11-04T18:04:35.391Z,94545.16
2022-11-04T18:07:04.028Z,94547.44
2022-11-04T18:09:32.735Z,94545.38
2022-11-04T18:12:18.076Z,94545.50
2022-11-04T18:14:46.047Z,94555.97
2022-11-04T18:17:15.887Z,94557.81
2022-11-04T18:19:43.924Z,94559.28
2022-11-04T18:22:12.150Z,94572.06
2022-11-04T18:24:40.895Z,94576.81
2022-11-04T18:27:08.873Z,94581.13
2022-11-04T18:29:37.050Z,94583.09
2022-11-04T18:32:05.651Z,94582.38
2022-11-04T18:34:35.746Z,94595.97
2022-11-04T18:37:03.938Z,94596.31
2022-11-04T18:39:31.979Z,94593.91
2022-11-04T18:42:00.039Z,94593.38
2022-11-04T18:44:29.870Z,94595.53
2022-11-04T18:46:58.017Z,94595.41
2022-11-04T18:49:26.001Z,94600.78
2022-11-04T18:51:56.133Z,94603.41
2022-11-04T18:54:24.231Z,94604.50
2022-11-04T18:56:52.223Z,94606.81
2022-11-04T18:59:20.811Z,94608.88
2022-11-04T19:01:51.252Z,94618.44
2022-11-04T19:04:19.638Z,94613.50
2022-11-04T19:06:47.860Z,94617.47
2022-11-04T19:12:26.015Z,94621.75
2022-11-04T19:14:55.891Z,94620.69
2022-11-04T19:17:25.287Z,94631.97
2022-11-04T19:19:53.595Z,94634.97
2022-11-04T19:22:21.641Z,94630.34
2022-11-04T19:24:51.126Z,94635.69
2022-11-04T19:27:21.556Z,94638.84
2022-11-04T19:29:49.831Z,94640.66
2022-11-04T19:32:17.939Z,94643.47
2022-11-04T19:34:46.100Z,94649.84
2022-11-04T19:37:14.296Z,94652.75
2022-11-04T19:39:42.973Z,94659.38
2022-11-04T19:42:30.676Z,94660.94
2022-11-04T19:44:59.149Z,94662.56
2022-11-04T19:47:27.478Z,94665.22
2022-11-04T19:49:56.385Z,94670.75
2022-11-04T19:52:24.485Z,94673.63
2022-11-04T19:54:52.502Z,94679.09
2022-11-04T19:57:21.885Z,94674.78
2022-11-04T19:59:50.962Z,94684.06
2022-11-04T20:02:19.922Z,94687.41
2022-11-04T20:04:49.973Z,94691.28
2022-11-04T20:07:18.384Z,94691.59
2022-11-04T20:09:46.459Z,94702.63
2022-11-04T20:12:32.470Z,94696.81
2022-11-04T20:15:01.989Z,94696.97
2022-11-04T20:17:32.413Z,94708.75
2022-11-04T20:20:00.402Z,94711.22
2022-11-04T20:22:28.569Z,94713.47
2022-11-04T20:24:56.577Z,94720.09
2022-11-04T20:27:24.589Z,94719.91
2022-11-04T20:29:55.483Z,94726.50
2022-11-04T20:32:25.720Z,94732.94
2022-11-04T20:34:53.791Z,94739.91
2022-11-04T20:37:21.738Z,94739.69
2022-11-04T20:39:49.820Z,94746.56
2022-11-04T20:42:17.991Z,94746.72
2022-11-04T20:44:46.424Z,94754.28
2022-11-04T20:47:16.021Z,94756.59
2022-11-04T20:49:45.838Z,94758.09
2022-11-04T20:52:13.825Z,94760.97
2022-11-04T20:54:41.966Z,94762.72
2022-11-04T20:57:10.571Z,94764.44
2022-11-04T20:59:38.643Z,94756.06
2022-11-04T21:02:06.845Z,94768.78
2022-11-04T21:04:36.511Z,94770.16
2022-11-04T21:07:06.902Z,94778.06
2022-11-04T21:09:34.952Z,94775.81
2022-11-04T21:12:02.965Z,94775.88
2022-11-04T21:14:34.679Z,94770.88
2022-11-04T21:17:03.300Z,94777.75
2022-11-04T21:19:31.614Z,94783.41
2022-11-04T21:21:59.981Z,94784.78
2022-11-04T21:24:29.517Z,94788.03
2022-11-04T21:26:58.752Z,94791.88
2022-11-04T21:29:26.909Z,94793.47
2022-11-04T21:31:54.972Z,94799.72
2022-11-04T21:34:24.019Z,94798.06
2022-11-04T21:36:53.175Z,94796.47
2022-11-04T21:39:21.417Z,94796.50
2022-11-04T21:41:50.889Z,94791.72
2022-11-04T21:44:19.148Z,94785.03
2022-11-04T21:46:51.341Z,94786.88
2022-11-04T21:49:19.710Z,94792.81
2022-11-04T21:51:47.716Z,94795.06
2022-11-04T21:54:15.848Z,94795.03
2022-11-04T21:56:44.285Z,94796.63
2022-11-04T21:59:18.153Z,94804.56
2022-11-04T22:01:46.918Z,94809.00
2022-11-04T22:04:15.153Z,94811.25
2022-11-04T22:06:43.218Z,94821.50
2022-11-04T22:09:12.765Z,94819.88
2022-11-04T22:11:41.065Z,94828.53
2022-11-04T22:14:09.396Z,94824.34
2022-11-04T22:16:40.775Z,94823.34
2022-11-04T22:19:10.772Z,94825.38
2022-11-04T22:21:40.948Z,94824.84
2022-11-04T22:24:12.324Z,94824.47
2022-11-04T22:26:40.682Z,94823.66
2022-11-04T22:29:08.699Z,94826.06
2022-11-04T22:31:41.002Z,94829.66
2022-11-04T22:34:09.813Z,94830.19
2022-11-04T22:36:37.965Z,94833.13
2022-11-04T22:39:10.514Z,94835.47
2022-11-04T22:41:41.644Z,94842.44
2022-11-04T22:44:09.835Z,94834.13
2022-11-04T22:46:40.046Z,94835.09
2022-11-04T22:49:08.381Z,94843.53
2022-11-04T22:51:36.353Z,94838.16
2022-11-04T22:54:08.245Z,94841.09
2022-11-04T22:56:37.101Z,94845.09
2022-11-04T22:59:05.263Z,94849.91
2022-11-04T23:01:33.992Z,94846.81
2022-11-04T23:04:03.884Z,94844.59
2022-11-04T23:06:32.261Z,94843.94
2022-11-04T23:09:01.078Z,94851.50
2022-11-04T23:11:48.887Z,94848.81
2022-11-04T23:14:36.630Z,94845.78
2022-11-04T23:17:29.997Z,94846.13
2022-11-04T23:19:59.400Z,94843.66
2022-11-04T23:22:45.124Z,94847.44
2022-11-04T23:25:14.010Z,94855.09
2022-11-04T23:28:02.929Z,94846.06
2022-11-04T23:30:33.301Z,94855.50
2022-11-04T23:33:03.315Z,94856.88
2022-11-04T23:35:52.995Z,94855.88
2022-11-04T23:38:21.162Z,94860.88
2022-11-04T23:41:04.308Z,94866.28
2022-11-04T23:43:32.640Z,94870.25
2022-11-04T23:46:17.829Z,94870.41
2022-11-04T23:49:03.708Z,94880.00
2022-11-04T23:51:50.746Z,94878.84
2022-11-04T23:54:36.156Z,94885.00
2022-11-04T23:57:21.940Z,94877.06
